Charlestown, IN (47111)

3:54 AM EDT on August 28, 2015 (GMT -0400)
Pleasant Run | | Change Station
CLOSE
Current Station
Personal Weather Station
Location: Charlestown, IN
Elevation: 492 ft
Nearby Weather Stations

Elev 492 ft 38.42 °N, 85.69 °W | Updated 17 seconds ago

Clear
Clear
53.8 °F
Feels Like 53.8 °F
N
0.0
Wind Variable Wind from NW
Gusts 0.0 mph

Today
High -- | Low -- °F
--% Chance of Precip.
Yesterday
High -- | Low -- °F
Precip. -- in
7:08 AM 8:18 PM
Waxing Gibbous, 97% visible
Pressure 30.11 in
Visibility 10.0 miles
Clouds Clear
Dew Point 53 °F
Humidity 97%
Rainfall 0.00 in
Snow Depth Not available.
UV 0 out of 12
Pollen 9.80 out of 12
Air Quality Not available.
Flu Activity Not available.
METAR KLOU 280653Z AUTO 00000KT 10SM CLR 17/13 A3012 RMK AO2 SLP196 T01720133 TSNO
Pressure 30.11 in
Visibility 10.0 miles
Clouds Clear
Dew Point 53 °F
Humidity 97%
Rainfall 0.00 in
Snow Depth Not available.
UV 0 out of 12
Pollen 9.80 out of 12
Air Quality Not available.
Flu Activity Not available.
METAR KLOU 280653Z AUTO 00000KT 10SM CLR 17/13 A3012 RMK AO2 SLP196 T01720133 TSNO

10-Day Weather Forecast

×

Almanac

Astronomy

Aug. 28, 2015 Rise Set
Actual Time
Civil Twilight
Nautical Twilight
Astronomical Twilight
Moon
Length of Visible Light
Length of Day
Tomorrow will be .
, % of the Moon is Illuminated

Today's Extremes

State Highs State Lows

Community

WunderPhotos

Upload Photos

1,850,348 photos uploaded!

WunderBlogs® & News

Nearby

Air Quality

  Air Quality AQ Index Pollutant
Not available.

Snow Depth

Station Depth Elevation

Earthquake Activity

City Distance Mag. Time & Date
Minimum magnitude displayed is 2.5.

Coastal Water Temperatures

Place Temperature

Stations

Nearby Weather Stations

Station Location Temp. Windchill Dew Point Humidity Wind Precip. Elev Updated Type